Terminal Aerodrome Forecast
Issued by NWS

Home | Current Version | Previous Version | Graphics & Text | Print | Product List | Glossary On
Versions: 1 2 3 4 5 6 7 8 9 10 11 12 13 14 15 16 17 18 19 20 21 22 23
000
FTUS43 KTOP 062300
TAFMHK
TAF
KMHK 062337Z 0700/0724 17020G32KT P6SM BKN035
     FM070100 16017G26KT P6SM VCTS BKN035CB
     FM070400 19015G25KT P6SM OVC040
     FM070800 18015G26KT 4SM -TSRA OVC030CB
     FM071400 19015G25KT P6SM BKN030=

USA.gov is the U.S. government's official web portal to all federal, state and local government web resources and services.